sensor_id;sensor_type;location;lat;lon;timestamp;P1;durP1;ratioP1;P2;durP2;ratioP2
22715;SDS011;11525;51.152;4.456;2023-08-24T00:00:09;9.90;;;6.43;;
22715;SDS011;11525;51.152;4.456;2023-08-24T00:02:36;11.93;;;7.47;;
22715;SDS011;11525;51.152;4.456;2023-08-24T00:05:02;10.23;;;6.88;;
22715;SDS011;11525;51.152;4.456;2023-08-24T00:07:28;9.65;;;6.43;;
22715;SDS011;11525;51.152;4.456;2023-08-24T00:09:54;12.55;;;5.95;;
22715;SDS011;11525;51.152;4.456;2023-08-24T00:12:20;10.77;;;6.22;;
22715;SDS011;11525;51.152;4.456;2023-08-24T00:14:46;14.63;;;6.72;;
22715;SDS011;11525;51.152;4.456;2023-08-24T00:17:11;11.85;;;6.15;;
22715;SDS011;11525;51.152;4.456;2023-08-24T00:19:37;10.88;;;6.18;;
22715;SDS011;11525;51.152;4.456;2023-08-24T00:22:03;10.63;;;6.43;;
22715;SDS011;11525;51.152;4.456;2023-08-24T00:24:29;9.45;;;6.22;;
22715;SDS011;11525;51.152;4.456;2023-08-24T00:26:54;11.43;;;6.18;;
22715;SDS011;11525;51.152;4.456;2023-08-24T00:29:20;13.32;;;6.38;;
22715;SDS011;11525;51.152;4.456;2023-08-24T00:31:47;12.27;;;6.68;;
22715;SDS011;11525;51.152;4.456;2023-08-24T00:34:12;10.07;;;6.40;;
22715;SDS011;11525;51.152;4.456;2023-08-24T00:36:38;9.20;;;5.90;;
22715;SDS011;11525;51.152;4.456;2023-08-24T00:39:04;8.85;;;6.35;;
22715;SDS011;11525;51.152;4.456;2023-08-24T00:41:30;10.88;;;6.05;;
22715;SDS011;11525;51.152;4.456;2023-08-24T00:43:56;9.60;;;6.85;;
22715;SDS011;11525;51.152;4.456;2023-08-24T00:46:21;15.00;;;6.75;;
22715;SDS011;11525;51.152;4.456;2023-08-24T00:48:47;13.23;;;6.65;;
22715;SDS011;11525;51.152;4.456;2023-08-24T00:51:13;9.10;;;6.63;;
22715;SDS011;11525;51.152;4.456;2023-08-24T00:53:39;11.38;;;6.72;;
22715;SDS011;11525;51.152;4.456;2023-08-24T00:56:05;9.80;;;6.65;;
22715;SDS011;11525;51.152;4.456;2023-08-24T00:58:31;9.25;;;6.50;;
22715;SDS011;11525;51.152;4.456;2023-08-24T01:00:58;10.40;;;6.60;;
22715;SDS011;11525;51.152;4.456;2023-08-24T01:03:24;10.48;;;6.55;;
22715;SDS011;11525;51.152;4.456;2023-08-24T01:05:50;14.60;;;6.88;;
22715;SDS011;11525;51.152;4.456;2023-08-24T01:08:16;8.40;;;7.03;;
22715;SDS011;11525;51.152;4.456;2023-08-24T01:10:52;11.30;;;6.90;;
22715;SDS011;11525;51.152;4.456;2023-08-24T01:13:30;16.15;;;6.80;;
22715;SDS011;11525;51.152;4.456;2023-08-24T01:16:07;12.15;;;7.00;;
22715;SDS011;11525;51.152;4.456;2023-08-24T01:18:38;9.45;;;6.85;;
22715;SDS011;11525;51.152;4.456;2023-08-24T01:21:06;8.32;;;6.43;;
22715;SDS011;11525;51.152;4.456;2023-08-24T01:23:34;10.05;;;6.43;;
22715;SDS011;11525;51.152;4.456;2023-08-24T01:26:20;12.30;;;6.65;;
22715;SDS011;11525;51.152;4.456;2023-08-24T01:28:46;8.73;;;6.32;;
22715;SDS011;11525;51.152;4.456;2023-08-24T01:31:13;9.23;;;6.43;;
22715;SDS011;11525;51.152;4.456;2023-08-24T01:33:40;12.48;;;7.13;;
22715;SDS011;11525;51.152;4.456;2023-08-24T01:36:06;10.07;;;6.72;;
22715;SDS011;11525;51.152;4.456;2023-08-24T01:38:33;10.38;;;7.40;;
22715;SDS011;11525;51.152;4.456;2023-08-24T01:41:03;15.23;;;7.18;;
22715;SDS011;11525;51.152;4.456;2023-08-24T01:43:49;11.90;;;6.90;;
22715;SDS011;11525;51.152;4.456;2023-08-24T01:46:18;12.80;;;7.00;;
22715;SDS011;11525;51.152;4.456;2023-08-24T01:48:46;10.73;;;6.47;;
22715;SDS011;11525;51.152;4.456;2023-08-24T01:51:13;8.65;;;6.55;;
22715;SDS011;11525;51.152;4.456;2023-08-24T01:53:40;15.00;;;7.18;;
22715;SDS011;11525;51.152;4.456;2023-08-24T01:56:10;11.88;;;7.15;;
22715;SDS011;11525;51.152;4.456;2023-08-24T01:58:36;15.85;;;6.90;;
22715;SDS011;11525;51.152;4.456;2023-08-24T02:01:02;11.77;;;6.40;;
22715;SDS011;11525;51.152;4.456;2023-08-24T02:03:29;11.32;;;7.38;;
22715;SDS011;11525;51.152;4.456;2023-08-24T02:05:55;12.90;;;7.75;;
22715;SDS011;11525;51.152;4.456;2023-08-24T02:08:21;12.35;;;7.70;;
22715;SDS011;11525;51.152;4.456;2023-08-24T02:10:46;12.38;;;7.88;;
22715;SDS011;11525;51.152;4.456;2023-08-24T02:13:12;15.48;;;8.10;;
22715;SDS011;11525;51.152;4.456;2023-08-24T02:15:38;16.55;;;8.40;;
22715;SDS011;11525;51.152;4.456;2023-08-24T02:18:04;17.63;;;9.25;;
22715;SDS011;11525;51.152;4.456;2023-08-24T02:20:34;14.23;;;10.02;;
22715;SDS011;11525;51.152;4.456;2023-08-24T02:23:00;15.70;;;9.63;;
22715;SDS011;11525;51.152;4.456;2023-08-24T02:25:26;15.93;;;10.05;;
22715;SDS011;11525;51.152;4.456;2023-08-24T02:27:51;16.17;;;10.60;;
22715;SDS011;11525;51.152;4.456;2023-08-24T02:30:17;18.10;;;11.35;;
22715;SDS011;11525;51.152;4.456;2023-08-24T02:32:43;19.40;;;11.20;;
22715;SDS011;11525;51.152;4.456;2023-08-24T02:35:08;17.17;;;11.75;;
22715;SDS011;11525;51.152;4.456;2023-08-24T02:37:34;15.70;;;12.15;;
22715;SDS011;11525;51.152;4.456;2023-08-24T02:39:59;17.02;;;12.02;;
22715;SDS011;11525;51.152;4.456;2023-08-24T02:42:25;19.10;;;12.65;;
22715;SDS011;11525;51.152;4.456;2023-08-24T02:44:52;14.82;;;12.07;;
22715;SDS011;11525;51.152;4.456;2023-08-24T02:47:17;17.00;;;12.15;;
22715;SDS011;11525;51.152;4.456;2023-08-24T02:49:43;18.00;;;12.25;;
22715;SDS011;11525;51.152;4.456;2023-08-24T02:52:08;16.23;;;12.23;;
22715;SDS011;11525;51.152;4.456;2023-08-24T02:54:34;19.35;;;12.93;;
22715;SDS011;11525;51.152;4.456;2023-08-24T02:57:00;15.55;;;12.45;;
22715;SDS011;11525;51.152;4.456;2023-08-24T02:59:25;17.70;;;12.07;;
22715;SDS011;11525;51.152;4.456;2023-08-24T03:01:51;19.65;;;12.18;;
22715;SDS011;11525;51.152;4.456;2023-08-24T03:04:17;17.50;;;12.63;;
22715;SDS011;11525;51.152;4.456;2023-08-24T03:06:44;20.33;;;12.63;;
22715;SDS011;11525;51.152;4.456;2023-08-24T03:09:10;19.70;;;12.50;;
22715;SDS011;11525;51.152;4.456;2023-08-24T03:11:35;17.48;;;12.60;;
22715;SDS011;11525;51.152;4.456;2023-08-24T03:14:01;18.95;;;12.43;;
22715;SDS011;11525;51.152;4.456;2023-08-24T03:16:27;18.85;;;13.05;;
22715;SDS011;11525;51.152;4.456;2023-08-24T03:18:52;21.80;;;13.52;;
22715;SDS011;11525;51.152;4.456;2023-08-24T03:21:18;14.57;;;13.02;;
22715;SDS011;11525;51.152;4.456;2023-08-24T03:23:44;19.55;;;13.55;;
22715;SDS011;11525;51.152;4.456;2023-08-24T03:26:09;19.05;;;13.25;;
22715;SDS011;11525;51.152;4.456;2023-08-24T03:28:35;19.05;;;13.75;;
22715;SDS011;11525;51.152;4.456;2023-08-24T03:31:01;18.35;;;13.55;;
22715;SDS011;11525;51.152;4.456;2023-08-24T03:33:26;15.63;;;13.38;;
22715;SDS011;11525;51.152;4.456;2023-08-24T03:35:53;19.48;;;14.07;;
22715;SDS011;11525;51.152;4.456;2023-08-24T03:38:19;20.60;;;13.77;;
22715;SDS011;11525;51.152;4.456;2023-08-24T03:40:45;18.60;;;14.10;;
22715;SDS011;11525;51.152;4.456;2023-08-24T03:43:10;22.42;;;14.65;;
22715;SDS011;11525;51.152;4.456;2023-08-24T03:45:36;24.55;;;14.98;;
22715;SDS011;11525;51.152;4.456;2023-08-24T03:48:02;16.67;;;13.48;;
22715;SDS011;11525;51.152;4.456;2023-08-24T03:50:27;19.92;;;14.43;;
22715;SDS011;11525;51.152;4.456;2023-08-24T03:52:53;21.33;;;13.30;;
22715;SDS011;11525;51.152;4.456;2023-08-24T03:55:20;17.10;;;13.85;;
22715;SDS011;11525;51.152;4.456;2023-08-24T03:57:46;16.05;;;13.07;;
22715;SDS011;11525;51.152;4.456;2023-08-24T04:00:12;22.50;;;14.30;;
22715;SDS011;11525;51.152;4.456;2023-08-24T04:02:39;21.83;;;14.68;;
22715;SDS011;11525;51.152;4.456;2023-08-24T04:05:06;21.55;;;15.30;;
22715;SDS011;11525;51.152;4.456;2023-08-24T04:07:32;19.35;;;13.50;;
22715;SDS011;11525;51.152;4.456;2023-08-24T04:09:58;16.67;;;14.23;;
22715;SDS011;11525;51.152;4.456;2023-08-24T04:12:24;21.33;;;14.80;;
22715;SDS011;11525;51.152;4.456;2023-08-24T04:14:49;20.40;;;15.13;;
22715;SDS011;11525;51.152;4.456;2023-08-24T04:17:17;19.17;;;13.95;;
22715;SDS011;11525;51.152;4.456;2023-08-24T04:19:43;20.13;;;14.68;;
22715;SDS011;11525;51.152;4.456;2023-08-24T04:22:08;15.18;;;13.43;;
22715;SDS011;11525;51.152;4.456;2023-08-24T04:24:34;18.45;;;13.82;;
22715;SDS011;11525;51.152;4.456;2023-08-24T04:26:59;17.40;;;15.15;;
22715;SDS011;11525;51.152;4.456;2023-08-24T04:29:25;17.65;;;13.95;;
22715;SDS011;11525;51.152;4.456;2023-08-24T04:31:51;18.33;;;13.93;;
22715;SDS011;11525;51.152;4.456;2023-08-24T04:34:17;17.35;;;13.70;;
22715;SDS011;11525;51.152;4.456;2023-08-24T04:36:42;16.90;;;14.18;;
22715;SDS011;11525;51.152;4.456;2023-08-24T04:39:08;20.02;;;14.15;;
22715;SDS011;11525;51.152;4.456;2023-08-24T04:41:33;18.17;;;13.93;;
22715;SDS011;11525;51.152;4.456;2023-08-24T04:43:59;15.23;;;13.43;;
22715;SDS011;11525;51.152;4.456;2023-08-24T04:46:24;22.63;;;14.38;;
22715;SDS011;11525;51.152;4.456;2023-08-24T04:48:51;19.60;;;14.80;;
22715;SDS011;11525;51.152;4.456;2023-08-24T04:51:17;17.27;;;14.93;;
22715;SDS011;11525;51.152;4.456;2023-08-24T04:53:42;21.83;;;14.77;;
22715;SDS011;11525;51.152;4.456;2023-08-24T04:56:08;19.80;;;14.07;;
22715;SDS011;11525;51.152;4.456;2023-08-24T04:58:33;15.93;;;14.23;;
22715;SDS011;11525;51.152;4.456;2023-08-24T05:00:59;20.77;;;15.35;;
22715;SDS011;11525;51.152;4.456;2023-08-24T05:03:25;18.50;;;13.18;;
22715;SDS011;11525;51.152;4.456;2023-08-24T05:05:51;19.88;;;14.52;;
22715;SDS011;11525;51.152;4.456;2023-08-24T05:08:16;19.90;;;14.15;;
22715;SDS011;11525;51.152;4.456;2023-08-24T05:10:43;21.92;;;16.65;;
22715;SDS011;11525;51.152;4.456;2023-08-24T05:13:08;21.10;;;14.82;;
22715;SDS011;11525;51.152;4.456;2023-08-24T05:15:34;18.48;;;14.00;;
22715;SDS011;11525;51.152;4.456;2023-08-24T05:18:00;18.45;;;14.73;;
22715;SDS011;11525;51.152;4.456;2023-08-24T05:20:26;20.95;;;13.68;;
22715;SDS011;11525;51.152;4.456;2023-08-24T05:22:52;17.38;;;14.20;;
22715;SDS011;11525;51.152;4.456;2023-08-24T05:25:20;16.75;;;14.38;;
22715;SDS011;11525;51.152;4.456;2023-08-24T05:27:46;17.15;;;14.32;;
22715;SDS011;11525;51.152;4.456;2023-08-24T05:30:12;17.65;;;14.05;;
22715;SDS011;11525;51.152;4.456;2023-08-24T05:32:38;17.55;;;13.63;;
22715;SDS011;11525;51.152;4.456;2023-08-24T05:35:04;18.42;;;13.63;;
22715;SDS011;11525;51.152;4.456;2023-08-24T05:37:30;16.92;;;13.75;;
22715;SDS011;11525;51.152;4.456;2023-08-24T05:39:56;17.58;;;13.75;;
22715;SDS011;11525;51.152;4.456;2023-08-24T05:42:22;16.20;;;12.77;;
22715;SDS011;11525;51.152;4.456;2023-08-24T05:44:48;14.75;;;12.70;;
22715;SDS011;11525;51.152;4.456;2023-08-24T05:47:13;19.58;;;13.15;;
22715;SDS011;11525;51.152;4.456;2023-08-24T05:49:39;17.27;;;13.70;;
22715;SDS011;11525;51.152;4.456;2023-08-24T05:52:04;25.77;;;14.73;;
22715;SDS011;11525;51.152;4.456;2023-08-24T05:54:30;25.05;;;14.63;;
22715;SDS011;11525;51.152;4.456;2023-08-24T05:56:57;20.27;;;13.57;;
22715;SDS011;11525;51.152;4.456;2023-08-24T05:59:25;19.85;;;11.55;;
22715;SDS011;11525;51.152;4.456;2023-08-24T06:01:51;15.10;;;11.52;;
22715;SDS011;11525;51.152;4.456;2023-08-24T06:04:17;18.45;;;12.73;;
22715;SDS011;11525;51.152;4.456;2023-08-24T06:06:42;17.50;;;12.15;;
22715;SDS011;11525;51.152;4.456;2023-08-24T06:09:08;17.35;;;13.15;;
22715;SDS011;11525;51.152;4.456;2023-08-24T06:11:35;14.63;;;11.68;;
22715;SDS011;11525;51.152;4.456;2023-08-24T06:14:01;19.67;;;12.85;;
22715;SDS011;11525;51.152;4.456;2023-08-24T06:16:27;17.27;;;12.80;;
22715;SDS011;11525;51.152;4.456;2023-08-24T06:18:53;17.33;;;12.35;;
22715;SDS011;11525;51.152;4.456;2023-08-24T06:21:19;16.48;;;11.88;;
22715;SDS011;11525;51.152;4.456;2023-08-24T06:23:45;19.08;;;11.77;;
22715;SDS011;11525;51.152;4.456;2023-08-24T06:26:12;19.13;;;11.02;;
22715;SDS011;11525;51.152;4.456;2023-08-24T06:28:38;14.43;;;9.95;;
22715;SDS011;11525;51.152;4.456;2023-08-24T06:31:04;18.08;;;11.63;;
22715;SDS011;11525;51.152;4.456;2023-08-24T06:33:33;15.30;;;8.93;;
22715;SDS011;11525;51.152;4.456;2023-08-24T06:35:59;13.35;;;8.35;;
22715;SDS011;11525;51.152;4.456;2023-08-24T06:38:25;14.48;;;9.55;;
22715;SDS011;11525;51.152;4.456;2023-08-24T06:40:51;11.82;;;7.95;;
22715;SDS011;11525;51.152;4.456;2023-08-24T06:43:16;10.18;;;7.47;;
22715;SDS011;11525;51.152;4.456;2023-08-24T06:45:43;18.30;;;9.20;;
22715;SDS011;11525;51.152;4.456;2023-08-24T06:48:09;10.25;;;7.40;;
22715;SDS011;11525;51.152;4.456;2023-08-24T06:50:35;11.43;;;8.25;;
22715;SDS011;11525;51.152;4.456;2023-08-24T06:53:02;13.70;;;7.90;;
22715;SDS011;11525;51.152;4.456;2023-08-24T06:55:28;10.57;;;6.70;;
22715;SDS011;11525;51.152;4.456;2023-08-24T06:57:54;12.70;;;7.45;;
22715;SDS011;11525;51.152;4.456;2023-08-24T07:00:20;12.57;;;7.85;;
22715;SDS011;11525;51.152;4.456;2023-08-24T07:02:46;12.52;;;8.25;;
22715;SDS011;11525;51.152;4.456;2023-08-24T07:05:13;14.50;;;8.18;;
22715;SDS011;11525;51.152;4.456;2023-08-24T07:07:39;12.63;;;7.95;;
22715;SDS011;11525;51.152;4.456;2023-08-24T07:10:08;12.15;;;8.02;;
22715;SDS011;11525;51.152;4.456;2023-08-24T07:12:34;13.98;;;8.07;;
22715;SDS011;11525;51.152;4.456;2023-08-24T07:14:59;13.50;;;7.57;;
22715;SDS011;11525;51.152;4.456;2023-08-24T07:17:25;11.73;;;8.18;;
22715;SDS011;11525;51.152;4.456;2023-08-24T07:19:51;12.73;;;7.70;;
22715;SDS011;11525;51.152;4.456;2023-08-24T07:22:17;10.10;;;7.95;;
22715;SDS011;11525;51.152;4.456;2023-08-24T07:24:42;11.52;;;7.20;;
22715;SDS011;11525;51.152;4.456;2023-08-24T07:27:08;12.75;;;7.65;;
22715;SDS011;11525;51.152;4.456;2023-08-24T07:29:34;16.50;;;7.88;;
22715;SDS011;11525;51.152;4.456;2023-08-24T07:32:00;11.48;;;7.50;;
22715;SDS011;11525;51.152;4.456;2023-08-24T07:34:25;13.48;;;9.48;;
22715;SDS011;11525;51.152;4.456;2023-08-24T07:36:51;15.43;;;9.00;;
22715;SDS011;11525;51.152;4.456;2023-08-24T07:39:18;12.98;;;7.90;;
22715;SDS011;11525;51.152;4.456;2023-08-24T07:41:44;13.35;;;9.48;;
22715;SDS011;11525;51.152;4.456;2023-08-24T07:44:10;16.95;;;8.77;;
22715;SDS011;11525;51.152;4.456;2023-08-24T07:46:35;12.93;;;8.38;;
22715;SDS011;11525;51.152;4.456;2023-08-24T07:49:01;11.95;;;9.57;;
22715;SDS011;11525;51.152;4.456;2023-08-24T07:51:27;14.50;;;8.63;;
22715;SDS011;11525;51.152;4.456;2023-08-24T07:53:53;13.25;;;8.82;;
22715;SDS011;11525;51.152;4.456;2023-08-24T07:56:19;15.55;;;9.45;;
22715;SDS011;11525;51.152;4.456;2023-08-24T07:58:45;15.65;;;8.80;;
22715;SDS011;11525;51.152;4.456;2023-08-24T08:01:11;14.55;;;8.43;;
22715;SDS011;11525;51.152;4.456;2023-08-24T08:03:37;14.02;;;8.27;;
22715;SDS011;11525;51.152;4.456;2023-08-24T08:06:02;22.85;;;10.13;;
22715;SDS011;11525;51.152;4.456;2023-08-24T08:08:29;10.90;;;7.53;;
22715;SDS011;11525;51.152;4.456;2023-08-24T08:10:58;11.85;;;8.13;;
22715;SDS011;11525;51.152;4.456;2023-08-24T08:13:25;13.07;;;9.10;;
22715;SDS011;11525;51.152;4.456;2023-08-24T08:15:51;15.50;;;9.10;;
22715;SDS011;11525;51.152;4.456;2023-08-24T08:18:17;11.90;;;8.52;;
22715;SDS011;11525;51.152;4.456;2023-08-24T08:20:42;10.82;;;8.50;;
22715;SDS011;11525;51.152;4.456;2023-08-24T08:23:08;13.60;;;8.65;;
22715;SDS011;11525;51.152;4.456;2023-08-24T08:25:34;17.90;;;10.38;;
22715;SDS011;11525;51.152;4.456;2023-08-24T08:27:59;20.75;;;11.82;;
22715;SDS011;11525;51.152;4.456;2023-08-24T08:30:25;13.00;;;8.95;;
22715;SDS011;11525;51.152;4.456;2023-08-24T08:32:50;17.17;;;9.38;;
22715;SDS011;11525;51.152;4.456;2023-08-24T08:35:17;14.82;;;9.13;;
22715;SDS011;11525;51.152;4.456;2023-08-24T08:37:44;17.08;;;10.13;;
22715;SDS011;11525;51.152;4.456;2023-08-24T08:40:10;20.38;;;9.75;;
22715;SDS011;11525;51.152;4.456;2023-08-24T08:42:37;19.30;;;12.13;;
22715;SDS011;11525;51.152;4.456;2023-08-24T08:45:04;16.80;;;9.07;;
22715;SDS011;11525;51.152;4.456;2023-08-24T08:47:33;17.60;;;8.93;;
22715;SDS011;11525;51.152;4.456;2023-08-24T08:49:59;15.60;;;8.77;;
22715;SDS011;11525;51.152;4.456;2023-08-24T08:52:28;12.25;;;7.90;;
22715;SDS011;11525;51.152;4.456;2023-08-24T08:54:54;17.40;;;9.18;;
22715;SDS011;11525;51.152;4.456;2023-08-24T08:57:21;18.35;;;9.73;;
22715;SDS011;11525;51.152;4.456;2023-08-24T08:59:49;11.82;;;8.00;;
22715;SDS011;11525;51.152;4.456;2023-08-24T09:02:17;16.73;;;8.52;;
22715;SDS011;11525;51.152;4.456;2023-08-24T09:04:45;13.77;;;8.88;;
22715;SDS011;11525;51.152;4.456;2023-08-24T09:07:15;11.43;;;8.07;;
22715;SDS011;11525;51.152;4.456;2023-08-24T09:09:41;11.35;;;8.90;;
22715;SDS011;11525;51.152;4.456;2023-08-24T09:12:08;19.13;;;8.02;;
22715;SDS011;11525;51.152;4.456;2023-08-24T09:14:34;15.63;;;8.82;;
22715;SDS011;11525;51.152;4.456;2023-08-24T09:17:00;16.08;;;8.63;;
22715;SDS011;11525;51.152;4.456;2023-08-24T09:19:29;13.55;;;9.05;;
22715;SDS011;11525;51.152;4.456;2023-08-24T09:22:00;10.70;;;7.45;;
22715;SDS011;11525;51.152;4.456;2023-08-24T09:24:33;13.93;;;9.20;;
22715;SDS011;11525;51.152;4.456;2023-08-24T09:27:05;15.98;;;8.32;;
22715;SDS011;11525;51.152;4.456;2023-08-24T09:29:43;16.17;;;8.07;;
22715;SDS011;11525;51.152;4.456;2023-08-24T09:32:13;12.43;;;8.35;;
22715;SDS011;11525;51.152;4.456;2023-08-24T09:34:38;12.20;;;7.35;;
22715;SDS011;11525;51.152;4.456;2023-08-24T09:37:04;12.85;;;8.35;;
22715;SDS011;11525;51.152;4.456;2023-08-24T09:39:37;11.55;;;8.13;;
22715;SDS011;11525;51.152;4.456;2023-08-24T09:42:02;11.52;;;7.40;;
22715;SDS011;11525;51.152;4.456;2023-08-24T09:44:28;17.98;;;8.52;;
22715;SDS011;11525;51.152;4.456;2023-08-24T09:46:54;11.45;;;8.55;;
22715;SDS011;11525;51.152;4.456;2023-08-24T09:49:20;16.15;;;10.65;;
22715;SDS011;11525;51.152;4.456;2023-08-24T09:51:46;15.95;;;9.85;;
22715;SDS011;11525;51.152;4.456;2023-08-24T09:54:13;15.38;;;9.20;;
22715;SDS011;11525;51.152;4.456;2023-08-24T09:56:41;16.92;;;10.48;;
22715;SDS011;11525;51.152;4.456;2023-08-24T09:59:10;12.73;;;8.60;;
22715;SDS011;11525;51.152;4.456;2023-08-24T10:01:49;15.63;;;8.68;;
22715;SDS011;11525;51.152;4.456;2023-08-24T10:04:23;19.70;;;9.27;;
22715;SDS011;11525;51.152;4.456;2023-08-24T10:07:03;20.52;;;9.52;;
22715;SDS011;11525;51.152;4.456;2023-08-24T10:09:35;12.63;;;8.45;;
22715;SDS011;11525;51.152;4.456;2023-08-24T10:12:05;16.92;;;8.88;;
22715;SDS011;11525;51.152;4.456;2023-08-24T10:14:45;13.18;;;7.93;;
22715;SDS011;11525;51.152;4.456;2023-08-24T10:17:18;16.25;;;8.93;;
22715;SDS011;11525;51.152;4.456;2023-08-24T10:19:44;17.30;;;8.43;;
22715;SDS011;11525;51.152;4.456;2023-08-24T10:22:11;13.02;;;8.65;;
22715;SDS011;11525;51.152;4.456;2023-08-24T10:24:37;22.15;;;8.68;;
22715;SDS011;11525;51.152;4.456;2023-08-24T10:27:03;17.90;;;9.48;;
22715;SDS011;11525;51.152;4.456;2023-08-24T10:29:30;11.32;;;7.78;;
22715;SDS011;11525;51.152;4.456;2023-08-24T10:31:56;18.08;;;8.98;;
22715;SDS011;11525;51.152;4.456;2023-08-24T10:34:22;14.95;;;8.85;;
22715;SDS011;11525;51.152;4.456;2023-08-24T10:36:48;16.27;;;9.48;;
22715;SDS011;11525;51.152;4.456;2023-08-24T10:39:14;17.02;;;10.35;;
22715;SDS011;11525;51.152;4.456;2023-08-24T10:41:50;16.58;;;10.85;;
22715;SDS011;11525;51.152;4.456;2023-08-24T10:44:20;16.55;;;11.15;;
22715;SDS011;11525;51.152;4.456;2023-08-24T10:49:33;15.02;;;10.85;;
22715;SDS011;11525;51.152;4.456;2023-08-24T10:52:15;16.00;;;11.27;;
22715;SDS011;11525;51.152;4.456;2023-08-24T10:54:49;15.98;;;11.40;;
22715;SDS011;11525;51.152;4.456;2023-08-24T10:57:20;23.60;;;12.18;;
22715;SDS011;11525;51.152;4.456;2023-08-24T11:02:46;15.60;;;10.60;;
22715;SDS011;11525;51.152;4.456;2023-08-24T11:07:49;14.80;;;10.68;;
22715;SDS011;11525;51.152;4.456;2023-08-24T11:11:04;18.15;;;11.18;;
22715;SDS011;11525;51.152;4.456;2023-08-24T11:15:42;13.95;;;9.63;;
22715;SDS011;11525;51.152;4.456;2023-08-24T11:20:37;16.80;;;9.85;;
22715;SDS011;11525;51.152;4.456;2023-08-24T11:23:05;16.27;;;9.35;;
22715;SDS011;11525;51.152;4.456;2023-08-24T11:25:32;16.33;;;9.05;;
22715;SDS011;11525;51.152;4.456;2023-08-24T11:28:01;16.83;;;9.15;;
22715;SDS011;11525;51.152;4.456;2023-08-24T11:30:29;13.23;;;7.63;;
22715;SDS011;11525;51.152;4.456;2023-08-24T11:32:59;15.55;;;7.80;;
22715;SDS011;11525;51.152;4.456;2023-08-24T11:35:25;10.40;;;7.30;;
22715;SDS011;11525;51.152;4.456;2023-08-24T11:37:51;13.82;;;6.95;;
22715;SDS011;11525;51.152;4.456;2023-08-24T11:40:18;12.63;;;6.60;;
22715;SDS011;11525;51.152;4.456;2023-08-24T11:42:53;10.20;;;6.80;;
22715;SDS011;11525;51.152;4.456;2023-08-24T11:45:20;10.70;;;6.93;;
22715;SDS011;11525;51.152;4.456;2023-08-24T11:47:46;9.35;;;6.07;;
22715;SDS011;11525;51.152;4.456;2023-08-24T11:50:12;14.50;;;6.65;;
22715;SDS011;11525;51.152;4.456;2023-08-24T11:52:41;8.25;;;6.22;;
22715;SDS011;11525;51.152;4.456;2023-08-24T11:55:07;8.82;;;5.72;;
22715;SDS011;11525;51.152;4.456;2023-08-24T11:57:36;7.80;;;5.70;;
22715;SDS011;11525;51.152;4.456;2023-08-24T12:00:03;10.95;;;5.70;;
22715;SDS011;11525;51.152;4.456;2023-08-24T12:02:30;10.57;;;6.43;;
22715;SDS011;11525;51.152;4.456;2023-08-24T12:04:57;8.73;;;4.93;;
22715;SDS011;11525;51.152;4.456;2023-08-24T12:07:23;10.60;;;5.05;;
22715;SDS011;11525;51.152;4.456;2023-08-24T12:09:51;7.85;;;4.10;;
22715;SDS011;11525;51.152;4.456;2023-08-24T12:12:19;9.43;;;5.07;;
22715;SDS011;11525;51.152;4.456;2023-08-24T12:14:46;6.50;;;4.22;;
22715;SDS011;11525;51.152;4.456;2023-08-24T12:17:13;10.60;;;4.35;;
22715;SDS011;11525;51.152;4.456;2023-08-24T12:19:43;10.40;;;5.10;;
22715;SDS011;11525;51.152;4.456;2023-08-24T12:22:22;7.53;;;4.10;;
22715;SDS011;11525;51.152;4.456;2023-08-24T12:24:48;12.05;;;4.88;;
22715;SDS011;11525;51.152;4.456;2023-08-24T12:27:31;11.18;;;4.60;;
22715;SDS011;11525;51.152;4.456;2023-08-24T12:30:03;7.63;;;4.05;;
22715;SDS011;11525;51.152;4.456;2023-08-24T12:32:48;6.85;;;3.95;;
22715;SDS011;11525;51.152;4.456;2023-08-24T12:35:17;6.40;;;4.32;;
22715;SDS011;11525;51.152;4.456;2023-08-24T12:37:42;6.53;;;4.13;;
22715;SDS011;11525;51.152;4.456;2023-08-24T12:40:09;7.60;;;4.50;;
22715;SDS011;11525;51.152;4.456;2023-08-24T12:42:35;10.60;;;5.20;;
22715;SDS011;11525;51.152;4.456;2023-08-24T12:45:01;6.45;;;4.45;;
22715;SDS011;11525;51.152;4.456;2023-08-24T12:47:29;8.38;;;4.20;;
22715;SDS011;11525;51.152;4.456;2023-08-24T12:49:55;7.78;;;4.45;;
22715;SDS011;11525;51.152;4.456;2023-08-24T12:52:22;7.57;;;4.18;;
22715;SDS011;11525;51.152;4.456;2023-08-24T12:54:48;6.45;;;4.65;;
22715;SDS011;11525;51.152;4.456;2023-08-24T12:57:14;9.88;;;4.38;;
22715;SDS011;11525;51.152;4.456;2023-08-24T12:59:39;7.97;;;4.78;;
22715;SDS011;11525;51.152;4.456;2023-08-24T13:02:05;8.32;;;4.45;;
22715;SDS011;11525;51.152;4.456;2023-08-24T13:04:31;9.65;;;4.50;;
22715;SDS011;11525;51.152;4.456;2023-08-24T13:06:57;8.38;;;4.78;;
22715;SDS011;11525;51.152;4.456;2023-08-24T13:09:23;7.68;;;4.32;;
22715;SDS011;11525;51.152;4.456;2023-08-24T13:11:49;10.88;;;4.95;;
22715;SDS011;11525;51.152;4.456;2023-08-24T13:14:15;11.55;;;5.10;;
22715;SDS011;11525;51.152;4.456;2023-08-24T13:16:40;7.70;;;4.32;;
22715;SDS011;11525;51.152;4.456;2023-08-24T13:19:06;8.70;;;4.57;;
22715;SDS011;11525;51.152;4.456;2023-08-24T13:21:32;7.45;;;4.80;;
22715;SDS011;11525;51.152;4.456;2023-08-24T13:23:58;7.82;;;4.82;;
22715;SDS011;11525;51.152;4.456;2023-08-24T13:26:24;8.57;;;5.00;;
22715;SDS011;11525;51.152;4.456;2023-08-24T13:28:49;7.78;;;4.45;;
22715;SDS011;11525;51.152;4.456;2023-08-24T13:31:15;7.15;;;4.38;;
22715;SDS011;11525;51.152;4.456;2023-08-24T13:33:42;7.22;;;4.13;;
22715;SDS011;11525;51.152;4.456;2023-08-24T13:36:07;7.18;;;4.40;;
22715;SDS011;11525;51.152;4.456;2023-08-24T13:38:33;8.38;;;4.00;;
22715;SDS011;11525;51.152;4.456;2023-08-24T13:40:58;7.78;;;4.68;;
22715;SDS011;11525;51.152;4.456;2023-08-24T13:43:24;6.97;;;4.13;;
22715;SDS011;11525;51.152;4.456;2023-08-24T13:45:50;5.28;;;4.00;;
22715;SDS011;11525;51.152;4.456;2023-08-24T13:48:16;6.53;;;3.50;;
22715;SDS011;11525;51.152;4.456;2023-08-24T13:50:41;7.07;;;3.95;;
22715;SDS011;11525;51.152;4.456;2023-08-24T13:53:14;5.90;;;4.03;;
22715;SDS011;11525;51.152;4.456;2023-08-24T13:55:40;5.95;;;3.78;;
22715;SDS011;11525;51.152;4.456;2023-08-24T13:58:05;7.10;;;3.78;;
22715;SDS011;11525;51.152;4.456;2023-08-24T14:00:31;5.20;;;3.72;;
22715;SDS011;11525;51.152;4.456;2023-08-24T14:02:57;7.00;;;3.97;;
22715;SDS011;11525;51.152;4.456;2023-08-24T14:05:22;4.20;;;3.60;;
22715;SDS011;11525;51.152;4.456;2023-08-24T14:07:48;4.35;;;3.50;;
22715;SDS011;11525;51.152;4.456;2023-08-24T14:10:14;5.22;;;3.90;;
22715;SDS011;11525;51.152;4.456;2023-08-24T14:12:40;8.90;;;4.07;;
22715;SDS011;11525;51.152;4.456;2023-08-24T14:15:06;5.40;;;4.05;;
22715;SDS011;11525;51.152;4.456;2023-08-24T14:17:32;8.90;;;4.25;;
22715;SDS011;11525;51.152;4.456;2023-08-24T14:19:58;6.53;;;3.60;;
22715;SDS011;11525;51.152;4.456;2023-08-24T14:22:25;8.30;;;3.58;;
22715;SDS011;11525;51.152;4.456;2023-08-24T14:24:51;7.00;;;3.95;;
22715;SDS011;11525;51.152;4.456;2023-08-24T14:27:17;5.35;;;3.45;;
22715;SDS011;11525;51.152;4.456;2023-08-24T14:29:42;9.45;;;3.80;;
22715;SDS011;11525;51.152;4.456;2023-08-24T14:32:08;6.22;;;3.28;;
22715;SDS011;11525;51.152;4.456;2023-08-24T14:34:34;6.35;;;3.10;;
22715;SDS011;11525;51.152;4.456;2023-08-24T14:37:00;7.72;;;2.88;;
22715;SDS011;11525;51.152;4.456;2023-08-24T14:39:25;6.97;;;3.00;;
22715;SDS011;11525;51.152;4.456;2023-08-24T14:41:51;6.93;;;3.10;;
22715;SDS011;11525;51.152;4.456;2023-08-24T14:44:17;6.63;;;3.30;;